sensor_id;sensor_type;location;lat;lon;timestamp;temperature;humidity
435;DHT22;204;48.942;9.256;2022-07-29T00:02:23;19.70;99.90
435;DHT22;204;48.942;9.256;2022-07-29T00:04:48;19.70;99.90
435;DHT22;204;48.942;9.256;2022-07-29T00:07:14;19.60;99.90
435;DHT22;204;48.942;9.256;2022-07-29T00:09:39;19.60;99.90
435;DHT22;204;48.942;9.256;2022-07-29T00:12:05;19.50;99.90
435;DHT22;204;48.942;9.256;2022-07-29T00:14:31;19.50;99.90
435;DHT22;204;48.942;9.256;2022-07-29T00:16:56;19.50;99.90
435;DHT22;204;48.942;9.256;2022-07-29T00:19:22;19.40;99.90
435;DHT22;204;48.942;9.256;2022-07-29T00:21:48;19.40;99.90
435;DHT22;204;48.942;9.256;2022-07-29T00:24:13;19.40;99.90
435;DHT22;204;48.942;9.256;2022-07-29T00:26:39;19.40;99.90
435;DHT22;204;48.942;9.256;2022-07-29T00:29:04;19.40;99.90
435;DHT22;204;48.942;9.256;2022-07-29T00:31:30;19.30;99.90
435;DHT22;204;48.942;9.256;2022-07-29T00:33:56;19.30;99.90
435;DHT22;204;48.942;9.256;2022-07-29T00:36:22;19.20;99.90
435;DHT22;204;48.942;9.256;2022-07-29T00:38:49;19.20;99.90
435;DHT22;204;48.942;9.256;2022-07-29T00:41:15;19.10;99.90
435;DHT22;204;48.942;9.256;2022-07-29T00:43:41;19.00;99.90
435;DHT22;204;48.942;9.256;2022-07-29T00:46:07;19.00;99.90
435;DHT22;204;48.942;9.256;2022-07-29T00:48:33;18.90;99.90
435;DHT22;204;48.942;9.256;2022-07-29T00:51:00;18.80;99.90
435;DHT22;204;48.942;9.256;2022-07-29T00:53:27;18.80;99.90
435;DHT22;204;48.942;9.256;2022-07-29T00:55:56;18.80;99.90
435;DHT22;204;48.942;9.256;2022-07-29T00:58:23;18.70;99.90
435;DHT22;204;48.942;9.256;2022-07-29T01:00:49;18.60;99.90
435;DHT22;204;48.942;9.256;2022-07-29T01:03:14;18.60;99.90
435;DHT22;204;48.942;9.256;2022-07-29T01:05:41;18.60;99.90
435;DHT22;204;48.942;9.256;2022-07-29T01:08:08;18.50;99.90
435;DHT22;204;48.942;9.256;2022-07-29T01:10:37;18.50;99.90
435;DHT22;204;48.942;9.256;2022-07-29T01:13:03;18.50;99.90
435;DHT22;204;48.942;9.256;2022-07-29T01:15:30;18.50;99.90
435;DHT22;204;48.942;9.256;2022-07-29T01:18:20;18.50;99.90
435;DHT22;204;48.942;9.256;2022-07-29T01:26:45;18.50;1.00
435;DHT22;204;48.942;9.256;2022-07-29T01:29:30;18.40;1.00
435;DHT22;204;48.942;9.256;2022-07-29T01:32:15;18.40;1.00
435;DHT22;204;48.942;9.256;2022-07-29T01:34:58;18.40;1.00
435;DHT22;204;48.942;9.256;2022-07-29T01:37:29;18.30;1.00
435;DHT22;204;48.942;9.256;2022-07-29T01:39:58;18.30;1.00
435;DHT22;204;48.942;9.256;2022-07-29T01:42:33;18.30;1.00
435;DHT22;204;48.942;9.256;2022-07-29T01:45:10;18.30;1.00
435;DHT22;204;48.942;9.256;2022-07-29T01:47:44;18.20;1.00
435;DHT22;204;48.942;9.256;2022-07-29T01:50:15;18.20;1.00
435;DHT22;204;48.942;9.256;2022-07-29T01:52:58;18.20;1.00
435;DHT22;204;48.942;9.256;2022-07-29T01:55:28;18.20;1.00
435;DHT22;204;48.942;9.256;2022-07-29T01:57:56;18.20;1.00
435;DHT22;204;48.942;9.256;2022-07-29T02:00:23;18.10;1.00
435;DHT22;204;48.942;9.256;2022-07-29T02:02:49;18.00;1.00
435;DHT22;204;48.942;9.256;2022-07-29T02:05:17;17.90;1.00
435;DHT22;204;48.942;9.256;2022-07-29T02:07:44;17.90;1.00
435;DHT22;204;48.942;9.256;2022-07-29T02:10:12;17.90;1.00
435;DHT22;204;48.942;9.256;2022-07-29T02:12:39;17.90;1.00
435;DHT22;204;48.942;9.256;2022-07-29T02:15:06;17.90;1.00
435;DHT22;204;48.942;9.256;2022-07-29T02:17:42;17.90;1.00
435;DHT22;204;48.942;9.256;2022-07-29T02:20:09;17.90;1.00
435;DHT22;204;48.942;9.256;2022-07-29T02:22:37;17.80;1.00
435;DHT22;204;48.942;9.256;2022-07-29T02:25:05;17.80;1.00
435;DHT22;204;48.942;9.256;2022-07-29T02:27:33;17.70;1.00
435;DHT22;204;48.942;9.256;2022-07-29T02:30:01;17.70;1.00
435;DHT22;204;48.942;9.256;2022-07-29T02:32:27;17.60;1.00
435;DHT22;204;48.942;9.256;2022-07-29T02:34:54;17.60;1.00
435;DHT22;204;48.942;9.256;2022-07-29T02:37:21;17.60;1.00
435;DHT22;204;48.942;9.256;2022-07-29T02:39:48;17.50;1.00
435;DHT22;204;48.942;9.256;2022-07-29T02:42:16;17.50;1.00
435;DHT22;204;48.942;9.256;2022-07-29T02:44:42;17.50;1.00
435;DHT22;204;48.942;9.256;2022-07-29T02:47:42;17.50;1.00
435;DHT22;204;48.942;9.256;2022-07-29T02:50:33;17.50;1.00
435;DHT22;204;48.942;9.256;2022-07-29T02:53:13;17.40;1.00
435;DHT22;204;48.942;9.256;2022-07-29T02:56:01;17.40;1.00
435;DHT22;204;48.942;9.256;2022-07-29T02:58:38;17.40;1.00
435;DHT22;204;48.942;9.256;2022-07-29T03:01:10;17.40;1.00
435;DHT22;204;48.942;9.256;2022-07-29T03:03:37;17.40;1.00
435;DHT22;204;48.942;9.256;2022-07-29T03:06:05;17.40;1.00
435;DHT22;204;48.942;9.256;2022-07-29T03:08:32;17.40;1.00
435;DHT22;204;48.942;9.256;2022-07-29T03:10:58;17.40;1.00
435;DHT22;204;48.942;9.256;2022-07-29T03:13:25;17.40;1.00
435;DHT22;204;48.942;9.256;2022-07-29T03:15:51;17.40;1.00
435;DHT22;204;48.942;9.256;2022-07-29T03:18:17;17.40;1.00
435;DHT22;204;48.942;9.256;2022-07-29T03:20:43;17.30;1.00
435;DHT22;204;48.942;9.256;2022-07-29T03:23:09;17.30;1.00
435;DHT22;204;48.942;9.256;2022-07-29T03:25:35;17.40;1.00
435;DHT22;204;48.942;9.256;2022-07-29T03:28:00;17.40;1.00
435;DHT22;204;48.942;9.256;2022-07-29T03:30:26;17.40;1.00
435;DHT22;204;48.942;9.256;2022-07-29T03:32:53;17.40;1.00
435;DHT22;204;48.942;9.256;2022-07-29T03:35:21;17.40;1.00
435;DHT22;204;48.942;9.256;2022-07-29T03:37:48;17.40;1.00
435;DHT22;204;48.942;9.256;2022-07-29T03:40:18;17.40;1.00
435;DHT22;204;48.942;9.256;2022-07-29T03:42:45;17.40;1.00
435;DHT22;204;48.942;9.256;2022-07-29T03:45:17;17.40;1.00
435;DHT22;204;48.942;9.256;2022-07-29T03:47:47;17.40;1.00
435;DHT22;204;48.942;9.256;2022-07-29T03:50:14;17.40;1.00
435;DHT22;204;48.942;9.256;2022-07-29T03:52:40;17.40;1.00
435;DHT22;204;48.942;9.256;2022-07-29T03:55:07;17.40;1.00
435;DHT22;204;48.942;9.256;2022-07-29T03:57:35;17.50;1.00
435;DHT22;204;48.942;9.256;2022-07-29T04:00:02;17.50;1.00
435;DHT22;204;48.942;9.256;2022-07-29T04:02:28;17.50;1.00
435;DHT22;204;48.942;9.256;2022-07-29T04:04:54;17.60;1.00
435;DHT22;204;48.942;9.256;2022-07-29T04:07:19;17.70;1.00
435;DHT22;204;48.942;9.256;2022-07-29T04:09:45;17.70;1.00
435;DHT22;204;48.942;9.256;2022-07-29T04:12:11;17.80;1.00
435;DHT22;204;48.942;9.256;2022-07-29T04:14:36;17.90;1.00
435;DHT22;204;48.942;9.256;2022-07-29T04:17:03;17.90;1.00
435;DHT22;204;48.942;9.256;2022-07-29T04:19:29;18.00;1.00
435;DHT22;204;48.942;9.256;2022-07-29T04:21:55;18.00;1.00
435;DHT22;204;48.942;9.256;2022-07-29T04:24:21;18.10;99.90
435;DHT22;204;48.942;9.256;2022-07-29T04:26:47;18.20;99.90
435;DHT22;204;48.942;9.256;2022-07-29T04:29:12;18.20;99.90
435;DHT22;204;48.942;9.256;2022-07-29T04:31:40;18.30;99.90
435;DHT22;204;48.942;9.256;2022-07-29T04:34:05;18.40;99.90
435;DHT22;204;48.942;9.256;2022-07-29T04:36:31;18.40;99.90
435;DHT22;204;48.942;9.256;2022-07-29T04:38:56;18.50;99.90
435;DHT22;204;48.942;9.256;2022-07-29T04:41:23;18.50;99.90
435;DHT22;204;48.942;9.256;2022-07-29T04:43:48;18.60;99.90
435;DHT22;204;48.942;9.256;2022-07-29T04:46:14;18.60;99.90
435;DHT22;204;48.942;9.256;2022-07-29T04:48:40;18.60;99.90
435;DHT22;204;48.942;9.256;2022-07-29T04:51:05;18.70;99.90
435;DHT22;204;48.942;9.256;2022-07-29T04:53:31;18.80;99.90
435;DHT22;204;48.942;9.256;2022-07-29T04:55:56;18.90;99.90
435;DHT22;204;48.942;9.256;2022-07-29T04:58:22;19.00;99.90
435;DHT22;204;48.942;9.256;2022-07-29T05:00:49;19.10;99.90
435;DHT22;204;48.942;9.256;2022-07-29T05:03:15;19.10;99.90
435;DHT22;204;48.942;9.256;2022-07-29T05:05:40;19.20;99.90
435;DHT22;204;48.942;9.256;2022-07-29T05:08:06;19.30;99.90
435;DHT22;204;48.942;9.256;2022-07-29T05:10:32;19.40;99.90
435;DHT22;204;48.942;9.256;2022-07-29T05:12:58;19.50;99.90
435;DHT22;204;48.942;9.256;2022-07-29T05:15:23;19.60;99.90
435;DHT22;204;48.942;9.256;2022-07-29T05:17:49;19.70;99.90
435;DHT22;204;48.942;9.256;2022-07-29T05:20:14;19.70;99.90
435;DHT22;204;48.942;9.256;2022-07-29T05:22:40;19.90;99.90
435;DHT22;204;48.942;9.256;2022-07-29T05:25:06;20.00;99.90
435;DHT22;204;48.942;9.256;2022-07-29T05:27:32;20.20;99.90
435;DHT22;204;48.942;9.256;2022-07-29T05:29:57;20.30;99.90
435;DHT22;204;48.942;9.256;2022-07-29T05:32:23;20.40;99.90
435;DHT22;204;48.942;9.256;2022-07-29T05:34:48;20.50;99.90
435;DHT22;204;48.942;9.256;2022-07-29T05:37:14;20.50;99.90
435;DHT22;204;48.942;9.256;2022-07-29T05:39:40;20.70;99.90
435;DHT22;204;48.942;9.256;2022-07-29T05:42:09;20.80;99.90
435;DHT22;204;48.942;9.256;2022-07-29T05:44:38;21.00;99.90
435;DHT22;204;48.942;9.256;2022-07-29T05:47:04;21.30;99.90
435;DHT22;204;48.942;9.256;2022-07-29T05:49:30;21.50;99.90
435;DHT22;204;48.942;9.256;2022-07-29T05:51:55;21.80;99.90
435;DHT22;204;48.942;9.256;2022-07-29T05:54:21;22.10;99.90
435;DHT22;204;48.942;9.256;2022-07-29T05:56:47;22.30;99.90
435;DHT22;204;48.942;9.256;2022-07-29T05:59:12;22.50;99.90
435;DHT22;204;48.942;9.256;2022-07-29T06:01:38;22.80;99.90
435;DHT22;204;48.942;9.256;2022-07-29T06:04:07;23.00;99.90
435;DHT22;204;48.942;9.256;2022-07-29T06:06:34;23.20;99.90
435;DHT22;204;48.942;9.256;2022-07-29T06:09:00;23.40;99.90
435;DHT22;204;48.942;9.256;2022-07-29T06:11:26;23.50;99.90
435;DHT22;204;48.942;9.256;2022-07-29T06:13:52;23.30;99.90
435;DHT22;204;48.942;9.256;2022-07-29T06:16:18;23.30;99.90
435;DHT22;204;48.942;9.256;2022-07-29T06:18:44;23.30;99.90
435;DHT22;204;48.942;9.256;2022-07-29T06:21:10;23.40;99.90
435;DHT22;204;48.942;9.256;2022-07-29T06:23:39;23.50;99.90
435;DHT22;204;48.942;9.256;2022-07-29T06:26:05;23.70;99.90
435;DHT22;204;48.942;9.256;2022-07-29T06:28:31;23.90;99.90
435;DHT22;204;48.942;9.256;2022-07-29T06:30:56;24.00;99.90
435;DHT22;204;48.942;9.256;2022-07-29T06:33:22;24.20;99.90
435;DHT22;204;48.942;9.256;2022-07-29T06:35:47;24.40;99.90
435;DHT22;204;48.942;9.256;2022-07-29T06:38:14;24.60;99.90
435;DHT22;204;48.942;9.256;2022-07-29T06:40:44;24.80;99.90
435;DHT22;204;48.942;9.256;2022-07-29T06:43:46;25.00;99.90
435;DHT22;204;48.942;9.256;2022-07-29T06:46:13;25.20;99.90
435;DHT22;204;48.942;9.256;2022-07-29T06:48:40;25.40;99.90
435;DHT22;204;48.942;9.256;2022-07-29T06:51:08;25.50;99.90
435;DHT22;204;48.942;9.256;2022-07-29T06:53:34;25.60;99.90
435;DHT22;204;48.942;9.256;2022-07-29T06:56:01;25.70;99.90
435;DHT22;204;48.942;9.256;2022-07-29T06:58:28;25.70;99.90
435;DHT22;204;48.942;9.256;2022-07-29T07:00:55;25.70;99.90
435;DHT22;204;48.942;9.256;2022-07-29T07:03:21;25.70;99.90
435;DHT22;204;48.942;9.256;2022-07-29T07:05:48;25.70;99.90
435;DHT22;204;48.942;9.256;2022-07-29T07:08:13;25.70;99.90
435;DHT22;204;48.942;9.256;2022-07-29T07:10:41;25.80;99.90
435;DHT22;204;48.942;9.256;2022-07-29T07:13:07;25.80;99.90
435;DHT22;204;48.942;9.256;2022-07-29T07:15:33;26.00;99.90
435;DHT22;204;48.942;9.256;2022-07-29T07:17:58;26.10;99.90
435;DHT22;204;48.942;9.256;2022-07-29T07:20:24;26.20;99.90
435;DHT22;204;48.942;9.256;2022-07-29T07:22:50;26.40;99.90
435;DHT22;204;48.942;9.256;2022-07-29T07:25:16;26.60;99.90
435;DHT22;204;48.942;9.256;2022-07-29T07:27:43;26.80;99.90
435;DHT22;204;48.942;9.256;2022-07-29T07:30:09;26.90;99.90
435;DHT22;204;48.942;9.256;2022-07-29T07:32:35;26.90;99.90
435;DHT22;204;48.942;9.256;2022-07-29T07:35:01;26.90;99.90
435;DHT22;204;48.942;9.256;2022-07-29T07:37:27;26.90;99.90
435;DHT22;204;48.942;9.256;2022-07-29T07:39:53;26.80;99.90
435;DHT22;204;48.942;9.256;2022-07-29T07:42:19;26.90;99.90
435;DHT22;204;48.942;9.256;2022-07-29T07:44:45;27.00;99.90
435;DHT22;204;48.942;9.256;2022-07-29T07:47:11;27.10;99.90
435;DHT22;204;48.942;9.256;2022-07-29T07:49:37;27.30;99.90
435;DHT22;204;48.942;9.256;2022-07-29T07:52:03;27.50;99.90
435;DHT22;204;48.942;9.256;2022-07-29T07:54:29;27.80;99.90
435;DHT22;204;48.942;9.256;2022-07-29T07:56:54;28.20;99.90
435;DHT22;204;48.942;9.256;2022-07-29T07:59:20;28.60;99.90
435;DHT22;204;48.942;9.256;2022-07-29T08:01:46;29.00;99.90
435;DHT22;204;48.942;9.256;2022-07-29T08:04:11;29.40;99.90
435;DHT22;204;48.942;9.256;2022-07-29T08:06:37;29.50;99.90
435;DHT22;204;48.942;9.256;2022-07-29T08:09:03;29.60;99.90
435;DHT22;204;48.942;9.256;2022-07-29T08:11:29;29.60;99.90
435;DHT22;204;48.942;9.256;2022-07-29T08:13:55;29.60;99.90
435;DHT22;204;48.942;9.256;2022-07-29T08:16:21;29.60;99.90
435;DHT22;204;48.942;9.256;2022-07-29T08:18:47;29.70;99.90
435;DHT22;204;48.942;9.256;2022-07-29T08:21:14;29.80;99.90
435;DHT22;204;48.942;9.256;2022-07-29T08:23:41;30.00;99.90
435;DHT22;204;48.942;9.256;2022-07-29T08:26:18;30.20;99.90
435;DHT22;204;48.942;9.256;2022-07-29T08:28:44;30.40;99.90
435;DHT22;204;48.942;9.256;2022-07-29T08:31:12;30.50;99.90
435;DHT22;204;48.942;9.256;2022-07-29T08:33:38;30.50;99.90
435;DHT22;204;48.942;9.256;2022-07-29T08:36:05;30.60;99.90
435;DHT22;204;48.942;9.256;2022-07-29T08:38:32;30.60;99.90
435;DHT22;204;48.942;9.256;2022-07-29T08:40:58;30.60;99.90
435;DHT22;204;48.942;9.256;2022-07-29T08:43:25;30.60;99.90
435;DHT22;204;48.942;9.256;2022-07-29T08:45:51;30.60;99.90
435;DHT22;204;48.942;9.256;2022-07-29T08:48:22;30.40;99.90
435;DHT22;204;48.942;9.256;2022-07-29T08:50:54;30.50;99.90
435;DHT22;204;48.942;9.256;2022-07-29T08:53:26;30.60;99.90
435;DHT22;204;48.942;9.256;2022-07-29T08:55:53;30.60;99.90
435;DHT22;204;48.942;9.256;2022-07-29T08:58:18;30.70;99.90
435;DHT22;204;48.942;9.256;2022-07-29T09:00:55;30.70;99.90
435;DHT22;204;48.942;9.256;2022-07-29T09:03:23;30.80;99.90
435;DHT22;204;48.942;9.256;2022-07-29T09:05:50;30.70;99.90
435;DHT22;204;48.942;9.256;2022-07-29T09:08:17;30.50;99.90
435;DHT22;204;48.942;9.256;2022-07-29T09:10:43;30.50;99.90
435;DHT22;204;48.942;9.256;2022-07-29T09:13:09;30.20;99.90
435;DHT22;204;48.942;9.256;2022-07-29T09:15:35;29.90;99.90
435;DHT22;204;48.942;9.256;2022-07-29T09:18:00;29.70;99.90
435;DHT22;204;48.942;9.256;2022-07-29T09:20:28;29.70;99.90
435;DHT22;204;48.942;9.256;2022-07-29T09:23:14;29.70;99.90
435;DHT22;204;48.942;9.256;2022-07-29T09:25:40;29.80;99.90
435;DHT22;204;48.942;9.256;2022-07-29T09:28:16;29.90;99.90
435;DHT22;204;48.942;9.256;2022-07-29T09:30:57;30.00;99.90
435;DHT22;204;48.942;9.256;2022-07-29T09:33:32;30.20;99.90
435;DHT22;204;48.942;9.256;2022-07-29T09:36:04;30.30;99.90
435;DHT22;204;48.942;9.256;2022-07-29T09:38:30;30.50;99.90
435;DHT22;204;48.942;9.256;2022-07-29T09:40:58;30.60;99.90
435;DHT22;204;48.942;9.256;2022-07-29T09:43:24;30.50;99.90
435;DHT22;204;48.942;9.256;2022-07-29T09:45:49;30.40;99.90
435;DHT22;204;48.942;9.256;2022-07-29T09:48:20;30.30;99.90
435;DHT22;204;48.942;9.256;2022-07-29T09:50:47;30.30;99.90
435;DHT22;204;48.942;9.256;2022-07-29T09:53:33;30.30;99.90
435;DHT22;204;48.942;9.256;2022-07-29T09:56:00;30.30;99.90
435;DHT22;204;48.942;9.256;2022-07-29T09:58:25;30.30;99.90
435;DHT22;204;48.942;9.256;2022-07-29T10:00:52;30.40;99.90
435;DHT22;204;48.942;9.256;2022-07-29T10:03:19;30.40;99.90
435;DHT22;204;48.942;9.256;2022-07-29T10:05:45;30.20;99.90
435;DHT22;204;48.942;9.256;2022-07-29T10:08:12;30.20;99.90
435;DHT22;204;48.942;9.256;2022-07-29T10:10:42;30.30;99.90
435;DHT22;204;48.942;9.256;2022-07-29T10:13:10;30.60;99.90
435;DHT22;204;48.942;9.256;2022-07-29T10:15:39;30.70;99.90
435;DHT22;204;48.942;9.256;2022-07-29T10:18:07;30.80;99.90
435;DHT22;204;48.942;9.256;2022-07-29T10:20:33;30.90;99.90
435;DHT22;204;48.942;9.256;2022-07-29T10:22:59;31.00;99.90
435;DHT22;204;48.942;9.256;2022-07-29T10:25:26;31.00;99.90
435;DHT22;204;48.942;9.256;2022-07-29T10:27:52;30.80;99.90
435;DHT22;204;48.942;9.256;2022-07-29T10:30:19;30.50;99.90
435;DHT22;204;48.942;9.256;2022-07-29T10:38:55;30.40;99.90
435;DHT22;204;48.942;9.256;2022-07-29T10:44:25;30.30;99.90
435;DHT22;204;48.942;9.256;2022-07-29T10:46:51;30.30;99.90
435;DHT22;204;48.942;9.256;2022-07-29T11:05:12;29.50;99.90
435;DHT22;204;48.942;9.256;2022-07-29T11:07:39;29.40;99.90
435;DHT22;204;48.942;9.256;2022-07-29T11:18:08;29.30;99.90
435;DHT22;204;48.942;9.256;2022-07-29T11:20:41;29.30;99.90
435;DHT22;204;48.942;9.256;2022-07-29T11:29:01;29.70;99.90
435;DHT22;204;48.942;9.256;2022-07-29T11:31:39;29.80;99.90
435;DHT22;204;48.942;9.256;2022-07-29T11:39:39;29.70;99.90
435;DHT22;204;48.942;9.256;2022-07-29T11:47:29;29.60;99.90
435;DHT22;204;48.942;9.256;2022-07-29T11:49:57;29.90;99.90
435;DHT22;204;48.942;9.256;2022-07-29T11:52:23;30.20;99.90
435;DHT22;204;48.942;9.256;2022-07-29T11:54:58;30.50;99.90
435;DHT22;204;48.942;9.256;2022-07-29T11:57:27;30.90;99.90
435;DHT22;204;48.942;9.256;2022-07-29T11:59:53;31.20;99.90
435;DHT22;204;48.942;9.256;2022-07-29T12:02:20;31.50;99.90
435;DHT22;204;48.942;9.256;2022-07-29T12:04:54;31.80;99.90
435;DHT22;204;48.942;9.256;2022-07-29T12:07:30;32.10;99.90
435;DHT22;204;48.942;9.256;2022-07-29T12:09:56;32.50;99.90
435;DHT22;204;48.942;9.256;2022-07-29T12:12:22;33.00;99.90
435;DHT22;204;48.942;9.256;2022-07-29T12:14:48;33.40;99.90
435;DHT22;204;48.942;9.256;2022-07-29T12:17:30;33.40;99.90
435;DHT22;204;48.942;9.256;2022-07-29T12:19:58;33.40;99.90
435;DHT22;204;48.942;9.256;2022-07-29T12:22:37;33.50;99.90
435;DHT22;204;48.942;9.256;2022-07-29T12:27:30;33.80;99.90
435;DHT22;204;48.942;9.256;2022-07-29T12:30:01;33.70;99.90
435;DHT22;204;48.942;9.256;2022-07-29T12:32:38;33.70;99.90
435;DHT22;204;48.942;9.256;2022-07-29T12:35:05;33.60;99.90
435;DHT22;204;48.942;9.256;2022-07-29T12:37:33;33.50;99.90
435;DHT22;204;48.942;9.256;2022-07-29T12:40:00;33.40;99.90
435;DHT22;204;48.942;9.256;2022-07-29T12:42:26;33.50;99.90
435;DHT22;204;48.942;9.256;2022-07-29T12:44:52;33.50;99.90
435;DHT22;204;48.942;9.256;2022-07-29T12:47:19;33.70;99.90
435;DHT22;204;48.942;9.256;2022-07-29T12:49:45;33.80;99.90
435;DHT22;204;48.942;9.256;2022-07-29T12:52:32;33.70;99.90
435;DHT22;204;48.942;9.256;2022-07-29T12:54:59;33.70;99.90
435;DHT22;204;48.942;9.256;2022-07-29T12:57:25;33.80;99.90
435;DHT22;204;48.942;9.256;2022-07-29T13:02:28;33.80;99.90
435;DHT22;204;48.942;9.256;2022-07-29T13:04:56;33.80;99.90
435;DHT22;204;48.942;9.256;2022-07-29T13:07:27;33.90;99.90
435;DHT22;204;48.942;9.256;2022-07-29T13:09:57;33.90;99.90
435;DHT22;204;48.942;9.256;2022-07-29T13:12:34;33.80;99.90
435;DHT22;204;48.942;9.256;2022-07-29T13:15:00;33.90;99.90
435;DHT22;204;48.942;9.256;2022-07-29T13:17:26;34.00;99.90
435;DHT22;204;48.942;9.256;2022-07-29T13:20:08;34.10;99.90
435;DHT22;204;48.942;9.256;2022-07-29T13:22:38;34.00;99.90
435;DHT22;204;48.942;9.256;2022-07-29T13:25:04;33.60;99.90
435;DHT22;204;48.942;9.256;2022-07-29T13:27:33;33.50;99.90
435;DHT22;204;48.942;9.256;2022-07-29T13:30:00;33.50;99.90
435;DHT22;204;48.942;9.256;2022-07-29T13:32:27;33.30;99.90
435;DHT22;204;48.942;9.256;2022-07-29T13:34:58;33.20;99.90
435;DHT22;204;48.942;9.256;2022-07-29T13:37:24;33.10;99.90
435;DHT22;204;48.942;9.256;2022-07-29T13:39:51;33.00;99.90
435;DHT22;204;48.942;9.256;2022-07-29T13:42:17;32.90;99.90
435;DHT22;204;48.942;9.256;2022-07-29T13:44:43;32.90;99.90
435;DHT22;204;48.942;9.256;2022-07-29T13:47:09;32.70;99.90
435;DHT22;204;48.942;9.256;2022-07-29T13:49:35;32.70;99.90
435;DHT22;204;48.942;9.256;2022-07-29T13:52:01;32.70;99.90
435;DHT22;204;48.942;9.256;2022-07-29T13:54:26;32.80;99.90
435;DHT22;204;48.942;9.256;2022-07-29T13:56:52;32.90;99.90
435;DHT22;204;48.942;9.256;2022-07-29T13:59:18;33.10;99.90
435;DHT22;204;48.942;9.256;2022-07-29T14:01:44;33.10;99.90
435;DHT22;204;48.942;9.256;2022-07-29T14:04:10;33.10;99.90
435;DHT22;204;48.942;9.256;2022-07-29T14:06:35;33.10;99.90
435;DHT22;204;48.942;9.256;2022-07-29T14:09:01;33.10;99.90
435;DHT22;204;48.942;9.256;2022-07-29T14:11:27;33.00;99.90
435;DHT22;204;48.942;9.256;2022-07-29T14:13:52;32.80;99.90
435;DHT22;204;48.942;9.256;2022-07-29T14:16:18;32.60;99.90
435;DHT22;204;48.942;9.256;2022-07-29T14:18:44;32.40;99.90
435;DHT22;204;48.942;9.256;2022-07-29T14:21:09;32.30;99.90
435;DHT22;204;48.942;9.256;2022-07-29T14:23:36;32.10;99.90
435;DHT22;204;48.942;9.256;2022-07-29T14:26:01;32.10;99.90
435;DHT22;204;48.942;9.256;2022-07-29T14:28:27;32.10;99.90
435;DHT22;204;48.942;9.256;2022-07-29T14:30:52;32.10;99.90
435;DHT22;204;48.942;9.256;2022-07-29T14:33:18;32.00;99.90
435;DHT22;204;48.942;9.256;2022-07-29T14:35:44;32.00;99.90
435;DHT22;204;48.942;9.256;2022-07-29T14:38:10;31.90;99.90
435;DHT22;204;48.942;9.256;2022-07-29T14:40:35;31.80;99.90
435;DHT22;204;48.942;9.256;2022-07-29T14:43:01;31.70;99.90
435;DHT22;204;48.942;9.256;2022-07-29T14:45:28;31.70;99.90
435;DHT22;204;48.942;9.256;2022-07-29T14:47:54;31.60;99.90
435;DHT22;204;48.942;9.256;2022-07-29T14:50:19;31.60;99.90
435;DHT22;204;48.942;9.256;2022-07-29T14:52:45;31.60;99.90
435;DHT22;204;48.942;9.256;2022-07-29T14:55:11;31.60;99.90
435;DHT22;204;48.942;9.256;2022-07-29T14:57:37;31.50;99.90
435;DHT22;204;48.942;9.256;2022-07-29T15:00:06;31.50;99.90
435;DHT22;204;48.942;9.256;2022-07-29T15:02:33;31.50;99.90
435;DHT22;204;48.942;9.256;2022-07-29T15:04:59;31.50;99.90
435;DHT22;204;48.942;9.256;2022-07-29T15:07:24;31.50;99.90
435;DHT22;204;48.942;9.256;2022-07-29T15:09:50;31.40;99.90
435;DHT22;204;48.942;9.256;2022-07-29T15:12:15;31.30;99.90
435;DHT22;204;48.942;9.256;2022-07-29T15:14:41;31.30;99.90
435;DHT22;204;48.942;9.256;2022-07-29T15:17:07;31.30;99.90
435;DHT22;204;48.942;9.256;2022-07-29T15:19:32;31.30;99.90
435;DHT22;204;48.942;9.256;2022-07-29T15:21:58;31.20;99.90
435;DHT22;204;48.942;9.256;2022-07-29T15:24:24;31.20;99.90
435;DHT22;204;48.942;9.256;2022-07-29T15:26:50;31.10;99.90
435;DHT22;204;48.942;9.256;2022-07-29T15:29:15;31.00;99.90
435;DHT22;204;48.942;9.256;2022-07-29T15:31:41;31.00;99.90
435;DHT22;204;48.942;9.256;2022-07-29T15:34:07;30.90;99.90
435;DHT22;204;48.942;9.256;2022-07-29T15:36:33;30.90;99.90
435;DHT22;204;48.942;9.256;2022-07-29T15:38:59;30.90;99.90
435;DHT22;204;48.942;9.256;2022-07-29T15:41:24;31.00;99.90
435;DHT22;204;48.942;9.256;2022-07-29T15:43:50;31.00;99.90
435;DHT22;204;48.942;9.256;2022-07-29T15:46:18;31.00;99.90
435;DHT22;204;48.942;9.256;2022-07-29T15:49:03;31.00;99.90
435;DHT22;204;48.942;9.256;2022-07-29T15:51:29;30.90;99.90
435;DHT22;204;48.942;9.256;2022-07-29T15:53:55;30.90;99.90
435;DHT22;204;48.942;9.256;2022-07-29T15:56:21;30.90;99.90
435;DHT22;204;48.942;9.256;2022-07-29T15:58:47;30.80;99.90
435;DHT22;204;48.942;9.256;2022-07-29T16:01:13;30.80;99.90
435;DHT22;204;48.942;9.256;2022-07-29T16:03:38;30.80;99.90
435;DHT22;204;48.942;9.256;2022-07-29T16:06:04;30.70;99.90
435;DHT22;204;48.942;9.256;2022-07-29T16:08:30;30.60;99.90
435;DHT22;204;48.942;9.256;2022-07-29T16:10:55;30.60;99.90
435;DHT22;204;48.942;9.256;2022-07-29T16:13:21;30.60;99.90
435;DHT22;204;48.942;9.256;2022-07-29T16:15:47;30.60;99.90
435;DHT22;204;48.942;9.256;2022-07-29T16:18:12;30.60;99.90
435;DHT22;204;48.942;9.256;2022-07-29T16:20:39;30.50;99.90
435;DHT22;204;48.942;9.256;2022-07-29T16:23:05;30.40;99.90
435;DHT22;204;48.942;9.256;2022-07-29T16:25:34;30.50;99.90
435;DHT22;204;48.942;9.256;2022-07-29T16:27:59;30.50;99.90
435;DHT22;204;48.942;9.256;2022-07-29T16:30:25;30.40;99.90
435;DHT22;204;48.942;9.256;2022-07-29T16:32:50;30.40;99.90
435;DHT22;204;48.942;9.256;2022-07-29T16:35:16;30.30;99.90
435;DHT22;204;48.942;9.256;2022-07-29T16:37:42;30.20;99.90
435;DHT22;204;48.942;9.256;2022-07-29T16:40:07;30.20;99.90
435;DHT22;204;48.942;9.256;2022-07-29T16:42:33;30.20;99.90
435;DHT22;204;48.942;9.256;2022-07-29T16:44:59;30.20;99.90
435;DHT22;204;48.942;9.256;2022-07-29T16:47:25;30.10;99.90
435;DHT22;204;48.942;9.256;2022-07-29T16:49:51;30.10;99.90
435;DHT22;204;48.942;9.256;2022-07-29T16:52:16;29.90;99.90
435;DHT22;204;48.942;9.256;2022-07-29T16:54:42;29.90;99.90
435;DHT22;204;48.942;9.256;2022-07-29T16:57:08;29.70;99.90
435;DHT22;204;48.942;9.256;2022-07-29T16:59:34;29.70;99.90
435;DHT22;204;48.942;9.256;2022-07-29T17:01:59;29.70;99.90
435;DHT22;204;48.942;9.256;2022-07-29T17:04:27;29.70;99.90
435;DHT22;204;48.942;9.256;2022-07-29T17:06:53;29.70;99.90
435;DHT22;204;48.942;9.256;2022-07-29T17:09:19;29.60;99.90
435;DHT22;204;48.942;9.256;2022-07-29T17:11:45;29.40;99.90
435;DHT22;204;48.942;9.256;2022-07-29T17:14:17;29.40;99.90
435;DHT22;204;48.942;9.256;2022-07-29T17:16:43;29.40;99.90
435;DHT22;204;48.942;9.256;2022-07-29T17:19:08;29.40;99.90
435;DHT22;204;48.942;9.256;2022-07-29T17:21:34;29.40;99.90
435;DHT22;204;48.942;9.256;2022-07-29T17:23:59;29.30;99.90
435;DHT22;204;48.942;9.256;2022-07-29T17:26:25;29.30;99.90
435;DHT22;204;48.942;9.256;2022-07-29T17:28:52;29.30;99.90
435;DHT22;204;48.942;9.256;2022-07-29T17:31:17;29.30;99.90
435;DHT22;204;48.942;9.256;2022-07-29T17:33:43;29.30;99.90
435;DHT22;204;48.942;9.256;2022-07-29T17:36:09;29.30;99.90
435;DHT22;204;48.942;9.256;2022-07-29T17:38:55;29.30;99.90
435;DHT22;204;48.942;9.256;2022-07-29T17:41:22;29.20;99.90